createdAt,value
2017-09-08T00:01:23.547Z,5.80
2017-09-08T00:03:50.656Z,5.77
2017-09-08T00:06:17.469Z,6.57
2017-09-08T00:08:44.309Z,5.43
2017-09-08T00:11:11.144Z,7.70
2017-09-08T00:13:38.233Z,6.17
2017-09-08T00:16:05.049Z,7.50
2017-09-08T00:18:31.898Z,6.90
2017-09-08T00:20:58.693Z,8.90
2017-09-08T00:23:25.807Z,7.27
2017-09-08T00:25:52.646Z,7.10
2017-09-08T00:28:19.444Z,8.53
2017-09-08T00:30:46.540Z,8.47
2017-09-08T00:33:13.388Z,7.30
2017-09-08T00:35:40.176Z,7.80
2017-09-08T00:38:07.024Z,6.13
2017-09-08T00:40:33.920Z,7.50
2017-09-08T00:43:00.707Z,6.80
2017-09-08T00:45:27.508Z,7.70
2017-09-08T00:47:54.333Z,7.00
2017-09-08T00:50:21.136Z,7.40
2017-09-08T00:52:47.947Z,7.20
2017-09-08T00:55:15.076Z,6.77
2017-09-08T00:57:41.888Z,6.77
2017-09-08T01:00:08.678Z,6.47
2017-09-08T01:02:35.561Z,6.63
2017-09-08T01:05:02.393Z,7.73
2017-09-08T01:07:29.236Z,7.80
2017-09-08T01:09:56.090Z,6.83
2017-09-08T01:12:22.888Z,6.43
2017-09-08T01:14:49.720Z,6.40
2017-09-08T01:17:16.572Z,8.00
2017-09-08T01:19:43.392Z,7.10
2017-09-08T01:22:10.452Z,7.57
2017-09-08T01:24:37.288Z,6.70
2017-09-08T01:27:04.300Z,6.80
2017-09-08T01:29:31.393Z,7.27
2017-09-08T01:31:58.238Z,7.80
2017-09-08T01:34:25.047Z,6.80
2017-09-08T01:36:52.133Z,7.20
2017-09-08T01:39:19.278Z,7.57
2017-09-08T01:41:46.325Z,7.27
2017-09-08T01:44:13.157Z,6.70
2017-09-08T01:46:39.996Z,8.00
2017-09-08T01:49:07.056Z,8.43
2017-09-08T01:51:33.893Z,7.93
2017-09-08T01:54:00.715Z,8.67
2017-09-08T01:56:27.532Z,8.13
2017-09-08T01:58:54.352Z,8.37
2017-09-08T02:01:21.195Z,8.27
2017-09-08T02:03:47.982Z,8.03
2017-09-08T02:06:14.800Z,8.27
2017-09-08T02:08:41.640Z,9.17
2017-09-08T02:11:08.456Z,8.20
2017-09-08T02:13:35.245Z,9.60
2017-09-08T02:16:02.089Z,8.10
2017-09-08T02:18:29.180Z,9.00
2017-09-08T02:20:56.032Z,9.20
2017-09-08T02:23:22.872Z,9.43
2017-09-08T02:25:49.921Z,10.00
2017-09-08T02:28:16.762Z,10.13
2017-09-08T02:30:43.604Z,9.90
2017-09-08T02:33:10.756Z,10.40
2017-09-08T02:35:37.577Z,10.97
2017-09-08T02:38:04.640Z,9.60
2017-09-08T02:40:31.456Z,9.83
2017-09-08T02:42:58.532Z,10.90
2017-09-08T02:45:25.680Z,10.90
2017-09-08T02:47:52.832Z,10.30
2017-09-08T02:50:19.875Z,12.60
2017-09-08T02:52:46.717Z,10.93
2017-09-08T02:55:13.768Z,10.37
2017-09-08T02:57:40.596Z,10.80
2017-09-08T03:00:07.452Z,13.17
2017-09-08T03:02:34.296Z,12.87
2017-09-08T03:05:01.095Z,10.50
2017-09-08T03:07:27.976Z,11.63
2017-09-08T03:09:54.773Z,10.97
2017-09-08T03:12:21.569Z,11.83
2017-09-08T03:14:48.424Z,11.20
2017-09-08T03:17:15.240Z,12.10
2017-09-08T03:19:42.040Z,11.00
2017-09-08T03:22:08.876Z,12.93
2017-09-08T03:24:35.721Z,11.87
2017-09-08T03:27:02.554Z,12.20
2017-09-08T03:29:29.671Z,12.60
2017-09-08T03:31:56.501Z,11.67
2017-09-08T03:34:23.292Z,11.90
2017-09-08T03:36:50.132Z,12.53
2017-09-08T03:39:16.948Z,11.33
2017-09-08T03:41:43.780Z,12.10
2017-09-08T03:44:10.638Z,10.90
2017-09-08T03:46:37.780Z,12.13
2017-09-08T03:49:04.576Z,10.53
2017-09-08T03:51:31.779Z,11.47
2017-09-08T03:53:58.928Z,13.80
2017-09-08T03:56:25.754Z,11.57
2017-09-08T03:58:52.585Z,10.80
2017-09-08T04:01:19.407Z,11.37
2017-09-08T04:03:46.243Z,12.63
2017-09-08T04:06:13.093Z,11.90
2017-09-08T04:08:39.931Z,11.97
2017-09-08T04:11:06.731Z,11.83
2017-09-08T04:13:33.879Z,11.90
2017-09-08T04:16:01.030Z,11.70
2017-09-08T04:18:27.846Z,11.87
2017-09-08T04:20:55.026Z,10.97
2017-09-08T04:23:21.816Z,11.13
2017-09-08T04:25:48.644Z,11.33
2017-09-08T04:28:15.752Z,11.13
2017-09-08T04:30:42.576Z,11.90
2017-09-08T04:33:09.366Z,11.70
2017-09-08T04:35:36.189Z,11.70
2017-09-08T04:38:02.988Z,11.27
2017-09-08T04:40:29.788Z,12.03
2017-09-08T04:42:56.913Z,11.50
2017-09-08T04:45:23.716Z,11.97
2017-09-08T04:47:50.809Z,12.17
2017-09-08T04:50:17.956Z,10.70
2017-09-08T04:52:44.784Z,11.13
2017-09-08T04:55:11.572Z,11.83
2017-09-08T04:57:38.688Z,12.40
2017-09-08T05:00:05.496Z,10.60
2017-09-08T05:02:32.348Z,10.20
2017-09-08T05:04:59.264Z,11.27
2017-09-08T05:07:26.368Z,13.03
2017-09-08T05:09:53.428Z,11.90
2017-09-08T05:12:20.248Z,10.70
2017-09-08T05:14:47.080Z,11.23
2017-09-08T05:17:13.922Z,11.83
2017-09-08T05:19:41.000Z,11.83
2017-09-08T05:22:08.042Z,10.83
2017-09-08T05:24:34.868Z,11.17
2017-09-08T05:27:01.695Z,11.97
2017-09-08T05:29:28.511Z,12.13
2017-09-08T05:31:55.317Z,11.60
2017-09-08T05:34:22.136Z,11.97
2017-09-08T05:36:48.948Z,12.50
2017-09-08T05:39:15.768Z,11.30
2017-09-08T05:41:42.625Z,12.80
2017-09-08T05:44:09.421Z,11.53
2017-09-08T05:46:36.481Z,12.10
2017-09-08T05:49:03.312Z,12.40
2017-09-08T05:51:30.363Z,11.60
2017-09-08T05:53:57.201Z,11.80
2017-09-08T05:56:24.360Z,12.40
2017-09-08T05:58:51.202Z,11.30
2017-09-08T06:01:18.208Z,12.83
2017-09-08T06:03:45.042Z,10.50
2017-09-08T06:06:11.867Z,12.90
2017-09-08T06:08:38.732Z,11.20
2017-09-08T06:11:05.824Z,11.10
2017-09-08T06:13:32.665Z,10.90
2017-09-08T06:15:59.498Z,12.13
2017-09-08T06:18:26.334Z,11.10
2017-09-08T06:20:53.130Z,12.03
2017-09-08T06:23:19.930Z,11.30
2017-09-08T06:25:46.817Z,12.10
2017-09-08T06:28:13.636Z,11.70
2017-09-08T06:30:40.780Z,12.40
2017-09-08T06:33:07.624Z,11.97
2017-09-08T06:35:34.416Z,12.10
2017-09-08T06:38:01.512Z,12.10
2017-09-08T06:40:28.380Z,12.43
2017-09-08T06:42:55.192Z,13.40
2017-09-08T06:45:22.248Z,13.43
2017-09-08T06:47:49.164Z,12.13
2017-09-08T06:50:15.988Z,13.20
2017-09-08T06:52:42.812Z,13.20
2017-09-08T06:55:09.660Z,13.10
2017-09-08T06:57:36.456Z,12.40
2017-09-08T07:00:03.312Z,12.43
2017-09-08T07:02:30.168Z,12.03
2017-09-08T07:04:56.976Z,12.43
2017-09-08T07:07:23.795Z,11.70
2017-09-08T07:09:50.648Z,11.77
2017-09-08T07:12:17.473Z,10.43
2017-09-08T07:14:44.291Z,10.77
2017-09-08T07:17:11.136Z,10.07
2017-09-08T07:19:38.255Z,11.10
2017-09-08T07:22:05.299Z,10.43
2017-09-08T07:24:32.124Z,11.40
2017-09-08T07:26:59.192Z,10.80
2017-09-08T07:29:26.015Z,11.00
2017-09-08T07:31:52.860Z,10.40
2017-09-08T07:34:19.673Z,10.17
2017-09-08T07:36:46.468Z,10.40
2017-09-08T07:39:13.317Z,9.87
2017-09-08T07:41:40.127Z,12.83
2017-09-08T07:44:06.949Z,9.27
2017-09-08T07:46:34.044Z,10.60
2017-09-08T07:49:00.860Z,10.40
2017-09-08T07:51:27.680Z,10.60
2017-09-08T07:53:54.528Z,10.00
2017-09-08T07:56:21.327Z,11.37
2017-09-08T07:58:48.128Z,10.00
2017-09-08T08:01:14.980Z,11.43
2017-09-08T08:03:41.772Z,11.10
2017-09-08T08:06:08.568Z,11.23
2017-09-08T08:08:35.737Z,10.33
2017-09-08T08:11:02.540Z,10.40
2017-09-08T08:13:29.628Z,9.67
2017-09-08T08:15:56.464Z,10.13
2017-09-08T08:18:23.259Z,9.90
2017-09-08T08:20:50.056Z,10.00
2017-09-08T08:23:17.199Z,10.20
2017-09-08T08:25:44.019Z,10.43
2017-09-08T08:28:11.093Z,10.90
2017-09-08T08:30:38.239Z,9.73
2017-09-08T08:33:05.032Z,10.60
2017-09-08T08:35:31.848Z,11.30
2017-09-08T08:37:58.708Z,10.03
2017-09-08T08:40:25.512Z,11.23
2017-09-08T08:42:52.335Z,10.10
2017-09-08T08:45:19.512Z,10.10
2017-09-08T08:47:46.329Z,10.10
2017-09-08T08:50:13.171Z,10.77
2017-09-08T08:52:40.346Z,9.60
2017-09-08T08:55:07.195Z,10.33
2017-09-08T08:57:34.003Z,10.43
2017-09-08T09:00:00.836Z,9.80
2017-09-08T09:02:27.923Z,9.40
2017-09-08T09:04:54.739Z,9.70
2017-09-08T09:07:21.578Z,10.73
2017-09-08T09:09:48.375Z,10.60
2017-09-08T09:12:15.491Z,11.00
2017-09-08T09:14:42.319Z,9.03
2017-09-08T09:17:09.140Z,10.57
2017-09-08T09:19:36.232Z,10.23
2017-09-08T09:22:03.380Z,9.20
2017-09-08T09:24:30.426Z,10.43
2017-09-08T09:26:57.255Z,10.20
2017-09-08T09:29:24.102Z,10.87
2017-09-08T09:31:50.916Z,9.73
2017-09-08T09:34:17.733Z,10.50
2017-09-08T09:36:44.592Z,11.63
2017-09-08T09:39:11.696Z,10.50
2017-09-08T09:41:38.488Z,9.83
2017-09-08T09:44:05.320Z,10.10
2017-09-08T09:46:32.160Z,10.43
2017-09-08T09:48:58.959Z,8.77
2017-09-08T09:51:26.108Z,12.10
2017-09-08T09:53:52.943Z,10.50
2017-09-08T09:56:19.761Z,10.53
2017-09-08T09:58:46.591Z,9.83
2017-09-08T10:01:13.393Z,11.33
2017-09-08T10:03:40.219Z,10.50
2017-09-08T10:06:07.062Z,10.63
2017-09-08T10:08:33.861Z,10.37
2017-09-08T10:11:00.699Z,10.27
2017-09-08T10:13:27.536Z,11.33
2017-09-08T10:15:54.341Z,10.50
2017-09-08T10:18:21.389Z,9.77
2017-09-08T10:20:48.224Z,9.57
2017-09-08T10:23:15.384Z,10.30
2017-09-08T10:25:42.207Z,10.57
2017-09-08T10:28:09.047Z,9.10
2017-09-08T10:30:35.832Z,8.97
2017-09-08T10:33:02.652Z,9.67
2017-09-08T10:35:29.801Z,8.80
2017-09-08T10:37:56.617Z,8.43
2017-09-08T10:40:23.424Z,10.53
2017-09-08T10:42:50.268Z,9.10
2017-09-08T10:45:17.080Z,9.57
2017-09-08T10:47:43.879Z,10.57
2017-09-08T10:50:10.700Z,10.50
2017-09-08T10:52:37.807Z,9.53
2017-09-08T10:55:04.958Z,9.80
2017-09-08T10:57:31.814Z,9.23
2017-09-08T10:59:58.598Z,9.00
2017-09-08T11:02:25.416Z,9.50
2017-09-08T11:04:52.235Z,9.10
2017-09-08T11:07:19.054Z,10.90
2017-09-08T11:09:45.892Z,10.30
2017-09-08T11:12:12.708Z,9.30
2017-09-08T11:14:39.805Z,9.97
2017-09-08T11:17:06.624Z,9.80
2017-09-08T11:19:33.800Z,9.03
2017-09-08T11:22:00.951Z,8.93
2017-09-08T11:24:27.736Z,9.10
2017-09-08T11:26:55.040Z,8.20
2017-09-08T11:29:21.858Z,9.87
2017-09-08T11:31:48.671Z,9.73
2017-09-08T11:34:15.514Z,8.33
2017-09-08T11:36:42.330Z,8.93
2017-09-08T11:39:09.465Z,9.77
2017-09-08T11:41:36.312Z,10.30
2017-09-08T11:44:03.108Z,8.90
2017-09-08T11:46:30.196Z,9.73
2017-09-08T11:48:57.355Z,9.30
2017-09-08T11:51:24.400Z,9.23
2017-09-08T11:53:51.253Z,8.80
2017-09-08T11:56:18.391Z,11.40
2017-09-08T11:58:45.180Z,9.00
2017-09-08T12:01:11.976Z,8.97
2017-09-08T12:03:38.792Z,9.47
2017-09-08T12:06:05.861Z,9.20
2017-09-08T12:08:32.659Z,9.87
2017-09-08T12:10:59.527Z,9.90
2017-09-08T12:13:26.357Z,9.20
2017-09-08T12:15:53.188Z,10.97
2017-09-08T12:18:20.036Z,9.73
2017-09-08T12:20:47.138Z,9.10
2017-09-08T12:23:13.996Z,11.20
2017-09-08T12:25:40.864Z,9.60
2017-09-08T12:28:07.724Z,9.97
2017-09-08T12:30:34.551Z,10.43
2017-09-08T12:33:01.856Z,9.20
2017-09-08T12:35:28.918Z,9.20
2017-09-08T12:37:55.852Z,10.67
2017-09-08T12:40:22.769Z,9.63
2017-09-08T12:42:49.678Z,9.17
2017-09-08T12:45:16.800Z,9.60
2017-09-08T12:47:43.936Z,9.70
2017-09-08T12:50:10.988Z,9.93
2017-09-08T12:52:37.941Z,10.13
2017-09-08T12:55:04.788Z,10.17
2017-09-08T12:57:31.657Z,9.07
2017-09-08T12:59:58.493Z,9.00
2017-09-08T13:02:25.320Z,10.10
2017-09-08T13:04:52.118Z,8.97
2017-09-08T13:07:18.932Z,9.27
2017-09-08T13:09:45.740Z,8.10
2017-09-08T13:12:12.585Z,9.30
2017-09-08T13:14:39.424Z,8.20
2017-09-08T13:17:06.263Z,7.80
2017-09-08T13:19:33.068Z,8.90
2017-09-08T13:21:59.864Z,8.47
2017-09-08T13:24:26.692Z,8.30
2017-09-08T13:26:53.508Z,8.00
2017-09-08T13:29:20.421Z,8.47
2017-09-08T13:31:47.312Z,7.90
2017-09-08T13:34:14.099Z,8.27
2017-09-08T13:36:41.203Z,8.50
2017-09-08T13:39:08.048Z,9.63
2017-09-08T13:41:34.850Z,9.53
2017-09-08T13:44:01.704Z,8.03
2017-09-08T13:46:28.554Z,6.80
2017-09-08T13:48:55.397Z,8.57
2017-09-08T13:51:22.253Z,8.67
2017-09-08T13:53:49.096Z,8.00
2017-09-08T13:56:16.072Z,6.77
2017-09-08T13:58:43.000Z,7.80
2017-09-08T14:01:09.844Z,8.33
2017-09-08T14:03:36.709Z,9.37
2017-09-08T14:06:03.585Z,8.37
2017-09-08T14:08:30.464Z,7.93
2017-09-08T14:10:57.255Z,7.87
2017-09-08T14:13:24.276Z,9.03
2017-09-08T14:15:51.420Z,8.90
2017-09-08T14:18:18.225Z,8.50
2017-09-08T14:20:45.076Z,8.53
2017-09-08T14:23:11.884Z,9.67
2017-09-08T14:25:38.710Z,6.90
2017-09-08T14:28:05.837Z,8.43
2017-09-08T14:30:32.721Z,9.30
2017-09-08T14:32:59.568Z,10.67
2017-09-08T14:35:26.668Z,8.90
2017-09-08T14:37:53.571Z,8.97
2017-09-08T14:40:20.413Z,8.20
2017-09-08T14:42:47.508Z,8.50
2017-09-08T14:45:14.540Z,8.63
2017-09-08T14:47:41.372Z,8.80
2017-09-08T14:50:08.190Z,7.83
2017-09-08T14:52:35.093Z,10.50
2017-09-08T14:55:01.898Z,7.13
2017-09-08T14:57:28.936Z,7.30
2017-09-08T14:59:56.167Z,6.90
2017-09-08T15:02:23.046Z,5.37
2017-09-08T15:04:50.121Z,6.73
2017-09-08T15:07:16.977Z,6.80
2017-09-08T15:09:44.652Z,6.53
2017-09-08T15:12:11.444Z,8.17
2017-09-08T15:14:38.272Z,6.43
2017-09-08T15:17:05.468Z,6.80
2017-09-08T15:19:32.288Z,6.50
2017-09-08T15:21:59.111Z,6.63
2017-09-08T15:24:25.904Z,6.40
2017-09-08T15:26:53.043Z,6.40
2017-09-08T15:29:19.898Z,6.93
2017-09-08T15:31:47.100Z,6.40
2017-09-08T15:34:13.958Z,5.30
2017-09-08T15:36:40.819Z,7.40
2017-09-08T15:39:07.608Z,6.67
2017-09-08T15:41:34.724Z,6.97
2017-09-08T15:44:01.865Z,5.27
2017-09-08T15:46:28.784Z,6.47
2017-09-08T15:48:55.619Z,19.93
2017-09-08T15:51:22.473Z,8.80
2017-09-08T15:53:49.544Z,8.90
2017-09-08T15:56:16.494Z,8.37
2017-09-08T15:58:43.338Z,9.97
2017-09-08T16:01:10.132Z,6.30
2017-09-08T16:03:37.220Z,6.87
2017-09-08T16:06:04.044Z,5.47
2017-09-08T16:08:31.188Z,5.40
2017-09-08T16:10:58.128Z,5.73
2017-09-08T16:13:26.064Z,7.17
2017-09-08T16:15:52.903Z,6.77
2017-09-08T16:18:19.729Z,6.30
2017-09-08T16:20:46.621Z,6.40
2017-09-08T16:23:13.427Z,7.40
2017-09-08T16:25:40.248Z,5.70
2017-09-08T16:28:07.144Z,6.40
2017-09-08T16:30:33.932Z,5.90
2017-09-08T16:33:00.766Z,6.50
2017-09-08T16:35:27.630Z,6.80
2017-09-08T16:37:54.443Z,6.00
2017-09-08T16:40:21.248Z,8.00
2017-09-08T16:42:48.088Z,6.23
2017-09-08T16:45:15.191Z,7.27
2017-09-08T16:47:42.054Z,6.80
2017-09-08T16:50:08.884Z,7.17
2017-09-08T16:52:35.676Z,6.43
2017-09-08T16:55:02.868Z,6.90
2017-09-08T16:57:29.712Z,5.90
2017-09-08T16:59:56.531Z,6.10
2017-09-08T17:02:23.316Z,6.20
2017-09-08T17:04:50.168Z,5.80
2017-09-08T17:07:16.960Z,6.20
2017-09-08T17:09:43.780Z,6.30
2017-09-08T17:12:10.606Z,6.13
2017-09-08T17:14:37.721Z,6.00
2017-09-08T17:17:04.540Z,6.40
2017-09-08T17:19:31.723Z,6.77
2017-09-08T17:21:58.532Z,5.90
2017-09-08T17:24:25.618Z,5.47
2017-09-08T17:26:52.483Z,5.63
2017-09-08T17:29:19.601Z,7.03
2017-09-08T17:31:46.442Z,7.10
2017-09-08T17:34:13.289Z,6.50
2017-09-08T17:36:40.084Z,6.73
2017-09-08T17:39:06.889Z,7.20
2017-09-08T17:41:33.816Z,6.80
2017-09-08T17:44:00.655Z,6.50
2017-09-08T17:46:27.508Z,8.20
2017-09-08T17:48:54.384Z,7.70
2017-09-08T17:51:21.204Z,7.87
2017-09-08T17:53:48.023Z,7.00
2017-09-08T17:56:14.874Z,6.77
2017-09-08T17:58:41.664Z,6.87
2017-09-08T18:01:08.716Z,7.47
2017-09-08T18:03:35.542Z,7.60
2017-09-08T18:08:30.734Z,6.27
2017-09-08T18:10:57.559Z,6.37
2017-09-08T18:13:24.423Z,6.70
2017-09-08T18:15:51.560Z,5.40
2017-09-08T18:18:18.402Z,6.17
2017-09-08T18:20:45.221Z,6.83
2017-09-08T18:23:12.003Z,7.00
2017-09-08T18:25:38.848Z,6.43
2017-09-08T18:28:05.675Z,6.50
2017-09-08T18:30:32.498Z,7.13
2017-09-08T18:32:59.338Z,6.60
2017-09-08T18:35:26.147Z,6.87
2017-09-08T18:37:52.971Z,7.07
2017-09-08T18:40:19.787Z,7.60
2017-09-08T18:42:46.832Z,7.33
2017-09-08T18:45:13.624Z,7.97
2017-09-08T18:47:40.489Z,7.87
2017-09-08T18:50:07.503Z,8.43
2017-09-08T18:52:34.316Z,7.87
2017-09-08T18:55:01.160Z,8.17
2017-09-08T18:57:28.199Z,7.50
2017-09-08T18:59:55.035Z,8.30
2017-09-08T19:02:22.096Z,8.60
2017-09-08T19:04:49.248Z,8.33
2017-09-08T19:07:16.074Z,7.63
2017-09-08T19:09:42.916Z,8.50
2017-09-08T19:12:09.726Z,9.40
2017-09-08T19:14:36.541Z,8.50
2017-09-08T19:17:03.360Z,8.00
2017-09-08T19:19:30.152Z,9.07
2017-09-08T19:21:56.949Z,8.10
2017-09-08T19:24:23.772Z,8.20
2017-09-08T19:26:50.600Z,7.97
2017-09-08T19:29:17.404Z,7.27
2017-09-08T19:31:44.249Z,8.07
2017-09-08T19:34:11.360Z,8.20
2017-09-08T19:36:38.177Z,8.30
2017-09-08T19:39:04.993Z,9.30
2017-09-08T19:41:31.808Z,7.20
2017-09-08T19:43:58.940Z,7.87
2017-09-08T19:46:25.991Z,8.53
2017-09-08T19:48:52.799Z,8.53
2017-09-08T19:51:19.641Z,8.20
2017-09-08T19:53:46.824Z,8.40
2017-09-08T19:56:13.616Z,8.30
2017-09-08T19:58:40.708Z,8.40
2017-09-08T20:01:07.582Z,7.30
2017-09-08T20:03:34.400Z,7.93
2017-09-08T20:08:34.845Z,7.83
2017-09-08T20:11:01.644Z,9.20
2017-09-08T20:13:28.468Z,9.73
2017-09-08T20:15:55.312Z,8.07
2017-09-08T20:18:22.100Z,9.10
2017-09-08T20:20:48.896Z,8.73
2017-09-08T20:23:15.734Z,8.27
2017-09-08T20:25:42.844Z,9.20
2017-09-08T20:28:10.000Z,9.53
2017-09-08T20:30:36.838Z,8.90
2017-09-08T20:33:03.652Z,8.43
2017-09-08T20:35:30.728Z,8.60
2017-09-08T20:37:57.565Z,8.37
2017-09-08T20:40:24.360Z,7.77
2017-09-08T20:42:51.469Z,8.47
2017-09-08T20:45:18.293Z,7.40
2017-09-08T20:47:45.359Z,8.13
2017-09-08T20:50:12.180Z,8.83
2017-09-08T20:52:38.993Z,9.37
2017-09-08T20:55:05.818Z,8.90
2017-09-08T20:57:32.624Z,9.40
2017-09-08T20:59:59.548Z,9.80
2017-09-08T21:02:26.340Z,8.67
2017-09-08T21:04:53.173Z,9.83
2017-09-08T21:07:19.989Z,9.90
2017-09-08T21:09:47.155Z,10.27
2017-09-08T21:12:14.305Z,8.47
2017-09-08T21:14:41.133Z,9.53
2017-09-08T21:17:07.937Z,9.10
2017-09-08T21:19:34.732Z,9.50
2017-09-08T21:22:01.581Z,10.13
2017-09-08T21:24:28.619Z,10.10
2017-09-08T21:26:55.774Z,10.10
2017-09-08T21:29:22.616Z,9.20
2017-09-08T21:31:49.412Z,10.83
2017-09-08T21:34:16.220Z,11.03
2017-09-08T21:36:43.051Z,10.97
2017-09-08T21:39:09.875Z,10.23
2017-09-08T21:41:36.697Z,10.77
2017-09-08T21:44:03.772Z,11.10
2017-09-08T21:46:30.941Z,10.43
2017-09-08T21:48:57.969Z,10.83
2017-09-08T21:51:25.052Z,10.90
2017-09-08T21:53:52.170Z,10.70
2017-09-08T21:56:18.975Z,11.23
2017-09-08T21:58:46.163Z,10.87
2017-09-08T22:01:13.208Z,11.10
2017-09-08T22:03:40.046Z,10.60
2017-09-08T22:06:06.860Z,11.17
2017-09-08T22:08:33.685Z,11.47
2017-09-08T22:11:00.472Z,11.07
2017-09-08T22:13:27.299Z,10.53
2017-09-08T22:15:54.103Z,10.83
2017-09-08T22:18:20.897Z,10.50
2017-09-08T22:20:47.727Z,10.40
2017-09-08T22:23:14.536Z,10.27
2017-09-08T22:25:41.326Z,9.70
2017-09-08T22:28:08.149Z,10.33
2017-09-08T22:30:35.227Z,10.37
2017-09-08T22:33:02.054Z,8.80
2017-09-08T22:35:28.913Z,11.20
2017-09-08T22:37:55.966Z,11.00
2017-09-08T22:40:23.011Z,11.43
2017-09-08T22:42:49.832Z,10.53
2017-09-08T22:45:16.640Z,11.70
2017-09-08T22:47:43.744Z,10.80
2017-09-08T22:50:10.596Z,10.80
2017-09-08T22:52:37.417Z,11.17
2017-09-08T22:55:04.480Z,11.20
2017-09-08T22:57:31.304Z,13.57
2017-09-08T22:59:58.372Z,11.23
2017-09-08T23:02:25.168Z,12.00
2017-09-08T23:04:52.028Z,10.83
2017-09-08T23:07:18.851Z,11.43
2017-09-08T23:09:45.674Z,10.77
2017-09-08T23:12:12.529Z,11.50
2017-09-08T23:14:39.331Z,10.93
2017-09-08T23:17:06.120Z,10.20
2017-09-08T23:19:33.211Z,10.13
2017-09-08T23:22:00.260Z,11.10
2017-09-08T23:24:27.096Z,9.87
2017-09-08T23:26:53.948Z,10.77
2017-09-08T23:29:20.748Z,9.90
2017-09-08T23:31:47.574Z,10.17
2017-09-08T23:34:14.403Z,10.87
2017-09-08T23:36:41.225Z,10.80
2017-09-08T23:39:08.045Z,10.00
2017-09-08T23:41:34.865Z,11.70
2017-09-08T23:44:01.955Z,10.17
2017-09-08T23:46:28.747Z,10.30
2017-09-08T23:48:55.600Z,10.20
2017-09-08T23:51:22.418Z,11.17
2017-09-08T23:53:49.208Z,9.90
2017-09-08T23:56:16.059Z,9.70
2017-09-08T23:58:42.844Z,9.17
